Time;durP1;ratioP1;P1;durP2;ratioP2;P2;SDS_P1;SDS_P2;PMS_P1;PMS_P2;Temp;Humidity;BMP_temperature;BMP_pressure;BME280_temperature;BME280_humidity;BME280_pressure;Samples;Min_cycle;Max_cycle;Signal;HPM_P1;HPM_P2
2022/08/25 00:01:37;;;;;;;10.95;4.90;;;20.70;99.90;;;;;;4977998;28;20050;-95
2022/08/25 00:04:18;;;;;;;10.93;4.57;;;21.30;99.90;;;;;;4977266;28;20038;-95
2022/08/25 00:06:52;;;;;;;10.20;4.82;;;20.80;99.90;;;;;;4977040;28;20049;-95
2022/08/25 00:09:31;;;;;;;10.18;4.82;;;20.60;99.90;;;;;;4976948;28;20402;-95
2022/08/25 00:12:09;;;;;;;10.50;4.40;;;20.80;99.90;;;;;;4976775;28;20045;-93
2022/08/25 00:14:54;;;;;;;9.13;4.55;;;20.40;99.90;;;;;;4976538;28;20046;-93
2022/08/25 00:17:26;;;;;;;10.65;4.47;;;20.50;99.90;;;;;;4976726;28;20462;-94
2022/08/25 00:20:13;;;;;;;10.38;4.50;;;20.50;99.90;;;;;;4978040;28;20084;-95
2022/08/25 00:22:45;;;;;;;9.75;4.13;;;21.20;99.90;;;;;;5017794;28;20070;-94
2022/08/25 00:28:59;;;;;;;9.70;4.53;;;20.90;99.90;;;;;;4976939;28;20051;-95
2022/08/25 00:32:17;;;;;;;9.25;4.10;;;20.40;99.90;;;;;;4968616;28;20066;-93
2022/08/25 00:34:43;;;;;;;10.07;4.15;;;20.40;99.90;;;;;;4977309;28;20051;-94
2022/08/25 00:37:09;;;;;;;10.68;4.05;;;20.20;99.90;;;;;;4991679;28;20034;-95
2022/08/25 00:39:57;;;;;;;9.35;4.30;;;20.70;99.90;;;;;;4996314;28;20050;-95
2022/08/25 00:42:41;;;;;;;9.90;3.90;;;20.50;99.90;;;;;;4976937;28;20090;-95
2022/08/25 00:45:08;;;;;;;12.10;4.35;;;21.00;99.90;;;;;;4985593;28;20038;-94
2022/08/25 00:47:34;;;;;;;10.70;4.40;;;20.30;99.90;;;;;;4995790;28;20078;-94
2022/08/25 00:50:24;;;;;;;10.05;4.20;;;20.60;99.90;;;;;;4982311;28;20049;-93
2022/08/25 00:55:50;;;;;;;10.57;4.40;;;20.50;99.90;;;;;;4980660;28;20050;-94
2022/08/25 01:01:42;;;;;;;10.60;4.50;;;20.20;99.90;;;;;;4997457;28;20158;-94
2022/08/25 01:04:08;;;;;;;11.00;4.15;;;20.20;99.90;;;;;;4997757;28;20043;-93
2022/08/25 01:06:48;;;;;;;11.90;4.22;;;20.50;99.90;;;;;;4980055;28;20050;-94
2022/08/25 01:09:15;;;;;;;10.25;4.20;;;20.10;99.90;;;;;;4980195;28;20057;-93
2022/08/25 01:11:56;;;;;;;9.93;4.30;;;19.90;99.90;;;;;;4985930;28;20054;-94
2022/08/25 01:15:27;;;;;;;9.48;4.00;;;20.10;99.90;;;;;;4980299;28;20046;-94
2022/08/25 01:19:02;;;;;;;11.18;4.47;;;20.00;99.90;;;;;;4997252;28;20046;-95
2022/08/25 01:21:30;;;;;;;11.23;4.10;;;19.90;99.90;;;;;;4997065;28;20050;-94
2022/08/25 01:24:42;;;;;;;9.75;4.07;;;20.70;99.90;;;;;;4980174;28;20293;-94
2022/08/25 01:27:29;;;;;;;8.82;3.95;;;19.90;99.90;;;;;;4995092;28;20069;-94
2022/08/25 01:30:15;;;;;;;9.48;4.13;;;20.30;99.90;;;;;;4979797;28;20062;-95
2022/08/25 01:33:02;;;;;;;11.13;4.05;;;20.50;99.90;;;;;;4996966;28;20101;-94
2022/08/25 01:35:31;;;;;;;13.05;4.80;;;19.70;99.90;;;;;;4996809;28;20092;-94
2022/08/25 01:37:58;;;;;;;8.90;3.97;;;20.00;99.90;;;;;;4979431;28;20057;-94
2022/08/25 01:40:41;;;;;;;10.15;4.05;;;20.20;99.90;;;;;;4979950;28;20042;-94
2022/08/25 01:43:34;;;;;;;8.75;4.10;;;20.20;99.90;;;;;;4979977;28;20050;-94
2022/08/25 01:46:00;;;;;;;9.65;4.18;;;19.60;99.90;;;;;;4979221;28;20042;-95
2022/08/25 01:48:29;;;;;;;9.63;4.00;;;20.10;99.90;;;;;;4996860;28;20056;-94
2022/08/25 01:51:13;;;;;;;9.40;3.92;;;19.50;99.90;;;;;;5003190;28;20070;-94
2022/08/25 01:54:00;;;;;;;9.65;4.28;;;19.50;99.90;;;;;;4984879;28;20070;-95
2022/08/25 01:56:38;;;;;;;13.23;4.60;;;19.40;99.90;;;;;;5014670;28;20026;-95
2022/08/25 01:59:13;;;;;;;10.57;4.15;;;19.50;99.90;;;;;;5002085;28;20100;-93
2022/08/25 02:01:38;;;;;;;9.95;4.00;;;19.40;99.90;;;;;;5001883;28;20046;-94
2022/08/25 02:04:16;;;;;;;8.70;4.15;;;19.70;99.90;;;;;;4987386;28;20042;-93
2022/08/25 02:07:05;;;;;;;9.82;4.28;;;19.90;99.90;;;;;;4979358;28;20081;-94
2022/08/25 02:09:43;;;;;;;9.52;4.07;;;19.30;99.90;;;;;;4979309;28;20073;-94
2022/08/25 02:12:09;;;;;;;9.13;3.85;;;19.30;99.90;;;;;;4979716;28;20051;-94
2022/08/25 02:14:40;;;;;;;10.98;4.15;;;19.60;99.90;;;;;;4978358;28;20050;-93
2022/08/25 02:17:06;;;;;;;8.70;4.20;;;19.20;99.90;;;;;;4996206;28;20055;-94
2022/08/25 02:19:41;;;;;;;9.38;4.20;;;19.70;99.90;;;;;;4978303;28;20038;-95
2022/08/25 02:22:25;;;;;;;10.00;4.10;;;19.30;99.90;;;;;;4978893;28;20555;-94
2022/08/25 02:24:51;;;;;;;8.48;4.00;;;20.00;99.90;;;;;;4995939;28;20517;-95
2022/08/25 02:31:21;;;;;;;10.30;4.50;;;19.10;99.90;;;;;;4940652;29;20532;-96
2022/08/25 02:34:02;;;;;;;11.18;4.30;;;19.00;99.90;;;;;;4960020;28;20474;-95
2022/08/25 02:36:30;;;;;;;10.52;4.35;;;19.00;99.90;;;;;;4963610;28;20054;-94
2022/08/25 02:38:56;;;;;;;10.32;4.25;;;19.00;99.90;;;;;;5078622;23;20051;-95
2022/08/25 02:41:41;;;;;;;11.45;4.65;;;19.30;99.90;;;;;;4975949;28;20062;-95
2022/08/25 02:44:09;;;;;;;9.65;4.03;;;18.90;99.90;;;;;;4977182;28;20055;-94
2022/08/25 02:46:36;;;;;;;9.43;4.50;;;19.00;99.90;;;;;;4966656;28;20050;-94
2022/08/25 02:49:17;;;;;;;8.98;4.35;;;18.90;99.90;;;;;;4993112;28;20073;-95
2022/08/25 02:52:04;;;;;;;10.63;4.20;;;18.90;99.90;;;;;;4993688;28;20047;-93
2022/08/25 02:54:32;;;;;;;9.02;4.30;;;19.00;99.90;;;;;;4989723;28;20632;-95
2022/08/25 02:57:14;;;;;;;9.82;4.32;;;19.10;99.90;;;;;;4977011;28;20042;-95
2022/08/25 02:59:47;;;;;;;10.52;4.15;;;18.80;99.90;;;;;;4959980;28;20047;-95
2022/08/25 03:02:26;;;;;;;10.33;4.10;;;19.10;99.90;;;;;;4959940;28;20078;-95
2022/08/25 03:05:06;;;;;;;9.10;4.25;;;19.20;99.90;;;;;;4961359;28;20054;-95
2022/08/25 03:07:42;;;;;;;9.43;4.30;;;19.00;99.90;;;;;;4977192;28;20054;-95
2022/08/25 03:10:17;;;;;;;10.70;4.47;;;18.80;99.90;;;;;;4958728;28;20089;-95
2022/08/25 03:12:44;;;;;;;10.73;4.40;;;18.80;99.90;;;;;;4958886;28;20046;-95
2022/08/25 03:15:19;;;;;;;12.30;4.40;;;18.60;99.90;;;;;;4975406;28;20089;-94
2022/08/25 03:17:48;;;;;;;9.55;4.85;;;18.60;99.90;;;;;;4958508;28;20039;-95
2022/08/25 03:20:14;;;;;;;10.68;4.50;;;18.40;99.90;;;;;;4956078;28;20055;-94
2022/08/25 03:22:41;;;;;;;11.98;4.30;;;18.50;99.90;;;;;;4958232;28;20047;-95
2022/08/25 03:28:09;;;;;;;10.30;4.53;;;18.50;99.90;;;;;;4978106;28;20118;-94
2022/08/25 03:30:47;;;;;;;10.40;4.70;;;18.50;99.90;;;;;;4958469;28;20042;-95
2022/08/25 03:33:31;;;;;;;9.55;4.68;;;18.80;99.90;;;;;;4958614;28;20471;-94
2022/08/25 03:35:56;;;;;;;;;;;18.80;99.90;;;;;;4981768;28;20042;-94
2022/08/25 03:38:39;;;;;;;10.45;4.90;;;18.40;99.90;;;;;;4992470;28;19922;-95
2022/08/25 03:41:31;;;;;;;10.48;4.30;;;18.80;99.90;;;;;;4956122;28;20118;-96
2022/08/25 03:44:05;;;;;;;11.90;4.70;;;18.20;99.90;;;;;;4957635;28;20055;-95
2022/08/25 03:46:49;;;;;;;10.43;4.70;;;18.50;99.90;;;;;;4958655;28;20048;-94
2022/08/25 03:49:32;;;;;;;10.45;4.50;;;18.90;99.90;;;;;;4962418;28;20078;-94
2022/08/25 03:52:13;;;;;;;10.68;4.68;;;18.70;99.90;;;;;;4976010;28;20053;-94
2022/08/25 03:54:56;;;;;;;9.93;4.63;;;18.50;99.90;;;;;;4957968;28;20554;-94
2022/08/25 03:57:35;;;;;;;11.73;5.13;;;18.90;99.90;;;;;;5043813;23;20050;-94
2022/08/25 04:00:17;;;;;;;16.08;4.97;;;18.30;99.90;;;;;;4994823;28;20058;-95
2022/08/25 04:02:55;;;;;;;10.90;5.15;;;18.20;99.90;;;;;;4957919;28;20069;-94
2022/08/25 04:05:41;;;;;;;10.30;4.75;;;18.80;99.90;;;;;;4957228;28;20051;-95
2022/08/25 04:08:25;;;;;;;11.77;4.72;;;18.20;99.90;;;;;;4958777;28;20085;-95
2022/08/25 04:10:51;;;;;;;11.02;5.22;;;18.90;99.90;;;;;;4957976;28;20074;-96
2022/08/25 04:13:31;;;;;;;9.82;4.70;;;18.10;99.90;;;;;;4975473;28;20042;-95
2022/08/25 04:16:33;;;;;;;10.60;5.15;;;18.20;99.90;;;;;;4959334;28;20072;-95
2022/08/25 04:19:01;;;;;;;10.40;4.50;;;18.10;99.90;;;;;;4958529;28;20495;-95
2022/08/25 04:21:33;;;;;;;9.68;4.80;;;18.20;99.90;;;;;;4973905;28;20043;-95
2022/08/25 04:24:02;;;;;;;11.27;4.63;;;18.20;99.90;;;;;;4957867;28;20047;-95
2022/08/25 04:26:49;;;;;;;10.18;4.60;;;18.20;99.90;;;;;;4974394;28;20122;-95
2022/08/25 04:29:27;;;;;;;10.82;4.93;;;18.60;99.90;;;;;;4957471;28;20047;-94
2022/08/25 04:32:05;;;;;;;9.90;4.50;;;18.40;99.90;;;;;;4958338;28;20509;-94
2022/08/25 04:34:42;;;;;;;11.88;4.93;;;18.10;99.90;;;;;;4975802;28;20288;-94
2022/08/25 04:37:11;;;;;;;9.38;4.50;;;18.40;99.90;;;;;;4961770;28;20043;-95
2022/08/25 04:39:37;;;;;;;11.05;4.68;;;18.70;99.90;;;;;;4984914;28;20046;-95
2022/08/25 04:42:07;;;;;;;12.73;4.70;;;18.10;99.90;;;;;;4975510;28;20039;-94
2022/08/25 04:44:33;;;;;;;10.63;4.63;;;18.80;99.90;;;;;;4957331;28;20042;-95
2022/08/25 04:47:11;;;;;;;10.32;4.75;;;18.90;99.90;;;;;;4963105;28;20070;-95
2022/08/25 04:50:41;;;;;;;11.65;5.03;;;18.30;99.90;;;;;;5008308;23;20050;-95
2022/08/25 04:53:08;;;;;;;10.07;4.57;;;18.10;99.90;;;;;;4994082;28;20053;-94
2022/08/25 04:55:54;;;;;;;9.95;4.78;;;18.70;99.90;;;;;;4994397;28;20046;-95
2022/08/25 04:58:32;;;;;;;10.23;4.63;;;17.90;99.90;;;;;;4993893;28;20053;-94
2022/08/25 05:01:21;;;;;;;10.88;4.63;;;18.10;99.90;;;;;;5000419;23;20051;-95
2022/08/25 05:03:51;;;;;;;12.27;5.00;;;18.70;99.90;;;;;;4965754;28;20402;-94
2022/08/25 05:06:17;;;;;;;12.27;5.07;;;18.00;99.90;;;;;;4974236;28;20126;-84
2022/08/25 05:08:56;;;;;;;11.02;4.97;;;18.80;99.90;;;;;;4955629;28;20139;-87
2022/08/25 05:11:24;;;;;;;11.25;4.63;;;18.40;99.90;;;;;;4979739;28;20043;-84
2022/08/25 05:13:55;;;;;;;10.80;5.13;;;18.10;99.90;;;;;;4979609;28;20051;-85
2022/08/25 05:16:22;;;;;;;14.00;5.25;;;18.20;99.90;;;;;;4955859;28;20055;-86
2022/08/25 05:18:48;;;;;;;11.18;4.70;;;18.10;99.90;;;;;;5033487;23;20047;-85
2022/08/25 05:21:17;;;;;;;12.13;5.05;;;18.10;99.90;;;;;;4991975;28;20050;-89
2022/08/25 05:23:44;;;;;;;11.65;4.95;;;18.40;99.90;;;;;;4975337;28;20038;-86
2022/08/25 05:26:13;;;;;;;12.75;5.05;;;18.10;99.90;;;;;;4993043;28;20176;-86
2022/08/25 05:28:42;;;;;;;9.85;4.80;;;18.20;99.90;;;;;;4974446;28;20050;-83
2022/08/25 05:31:11;;;;;;;10.15;5.00;;;18.30;99.90;;;;;;4994097;28;20520;-86
2022/08/25 05:33:38;;;;;;;11.73;5.20;;;18.80;99.90;;;;;;4978360;28;20491;-86
2022/08/25 05:36:05;;;;;;;12.10;5.43;;;18.30;99.90;;;;;;4995081;28;20046;-88
2022/08/25 05:42:03;;;;;;;10.45;4.80;;;18.40;99.90;;;;;;4964217;23;20070;-87
2022/08/25 05:44:41;;;;;;;11.32;5.25;;;18.50;99.90;;;;;;4957547;28;20047;-85
2022/08/25 05:47:07;;;;;;;12.98;5.00;;;19.30;99.90;;;;;;4958938;28;20046;-88
2022/08/25 05:49:36;;;;;;;12.75;4.80;;;19.30;99.90;;;;;;4957872;28;20869;-87
2022/08/25 05:52:07;;;;;;;11.10;4.78;;;18.70;99.90;;;;;;4976493;28;20053;-87
2022/08/25 05:54:39;;;;;;;15.82;5.45;;;19.00;99.90;;;;;;4976216;28;20190;-88
2022/08/25 05:57:20;;;;;;;11.00;5.03;;;18.80;99.90;;;;;;4976059;28;20558;-87
2022/08/25 06:00:06;;;;;;;10.75;4.65;;;19.40;99.90;;;;;;4976654;28;20095;-87
2022/08/25 06:05:35;;;;;;;11.00;4.75;;;19.60;99.90;;;;;;4957931;28;20050;-87
2022/08/25 06:08:01;;;;;;;12.93;5.30;;;19.10;99.90;;;;;;4958731;28;20483;-86
2022/08/25 06:10:54;;;;;;;11.10;4.93;;;19.20;99.90;;;;;;4957701;28;20047;-86
2022/08/25 06:13:20;;;;;;;10.95;4.93;;;19.20;99.90;;;;;;4958881;28;20054;-86
2022/08/25 06:15:48;;;;;;;13.00;5.32;;;20.00;99.90;;;;;;4958565;28;20042;-86
2022/08/25 06:18:51;;;;;;;11.52;5.10;;;20.00;99.90;;;;;;4974589;28;20082;-87
2022/08/25 06:21:26;;;;;;;11.10;5.57;;;19.50;99.90;;;;;;4956322;28;20510;-85
2022/08/25 06:23:58;;;;;;;11.90;5.10;;;19.90;99.90;;;;;;4945675;28;20043;-87
2022/08/25 06:26:42;;;;;;;10.95;5.05;;;20.00;99.90;;;;;;4974537;28;20070;-86
2022/08/25 06:29:13;;;;;;;;;;;19.80;99.90;;;;;;4947188;28;20058;-86
2022/08/25 06:31:55;;;;;;;10.20;4.80;;;19.90;99.90;;;;;;4973926;28;19922;-83
2022/08/25 06:34:20;;;;;;;12.70;5.00;;;20.00;99.90;;;;;;4958023;28;20125;-87
2022/08/25 06:36:46;;;;;;;12.43;4.80;;;20.00;99.90;;;;;;4960540;28;20102;-86
2022/08/25 06:40:13;;;;;;;11.27;5.22;;;20.00;99.90;;;;;;4958510;28;20418;-87
2022/08/25 06:43:07;;;;;;;11.57;5.18;;;20.20;99.90;;;;;;4880423;29;20096;-86
2022/08/25 06:45:36;;;;;;;11.55;4.70;;;20.20;99.90;;;;;;4893635;29;20052;-87
2022/08/25 06:48:01;;;;;;;10.88;5.30;;;20.60;99.90;;;;;;4912088;29;20033;-87
2022/08/25 06:51:15;;;;;;;13.57;4.90;;;20.50;99.90;;;;;;4925736;28;20110;-87
2022/08/25 06:53:45;;;;;;;10.32;5.10;;;20.60;99.90;;;;;;4930809;28;20518;-87
2022/08/25 06:56:15;;;;;;;11.55;4.75;;;21.40;99.90;;;;;;4957395;28;20061;-87
2022/08/25 06:58:53;;;;;;;12.30;4.88;;;20.90;99.90;;;;;;4974758;28;20062;-87
2022/08/25 07:05:15;;;;;;;11.63;4.93;;;21.10;99.90;;;;;;4973891;28;20033;-87
2022/08/25 07:07:43;;;;;;;10.98;5.03;;;21.60;99.90;;;;;;4956531;28;20043;-87
2022/08/25 07:10:12;;;;;;;10.77;5.03;;;21.50;99.90;;;;;;4974375;28;20497;-87
2022/08/25 07:12:41;;;;;;;12.52;5.00;;;21.60;99.90;;;;;;4956909;28;20085;-87
2022/08/25 07:15:07;;;;;;;11.02;5.25;;;21.80;99.90;;;;;;4971169;28;20086;-87
2022/08/25 07:17:45;;;;;;;9.55;4.80;;;21.80;99.90;;;;;;4956685;28;20050;-87
2022/08/25 07:20:11;;;;;;;13.18;5.15;;;22.50;99.90;;;;;;4957497;28;20149;-92
2022/08/25 07:22:49;;;;;;;10.52;5.15;;;22.50;99.90;;;;;;4956427;28;20055;-87
2022/08/25 07:25:15;;;;;;;11.02;5.20;;;22.30;99.90;;;;;;4974721;28;20101;-88
2022/08/25 07:27:41;;;;;;;10.38;4.82;;;22.40;99.90;;;;;;4956018;28;20058;-86
2022/08/25 07:30:08;;;;;;;10.65;4.97;;;22.50;99.90;;;;;;4974711;28;20050;-87
2022/08/25 07:32:33;;;;;;;13.00;5.22;;;22.60;99.90;;;;;;4956774;28;20205;-87
2022/08/25 07:35:14;;;;;;;11.32;5.20;;;22.80;99.90;;;;;;4956351;28;20542;-87
2022/08/25 07:38:01;;;;;;;13.63;5.22;;;23.40;99.90;;;;;;4957067;28;20061;-87
2022/08/25 07:40:39;;;;;;;11.68;5.30;;;23.30;99.90;;;;;;4956191;28;20066;-87
2022/08/25 07:43:30;;;;;;;11.98;4.75;;;23.10;99.90;;;;;;4973703;28;20050;-87
2022/08/25 07:45:56;;;;;;;11.75;5.10;;;23.30;99.90;;;;;;4973661;28;20055;-87
2022/08/25 07:48:31;;;;;;;15.23;5.03;;;23.90;99.90;;;;;;4956060;28;20054;-87
2022/08/25 07:50:57;;;;;;;12.13;5.05;;;23.40;99.90;;;;;;4957118;28;20051;-86
2022/08/25 07:53:29;;;;;;;12.07;4.57;;;23.50;99.90;;;;;;4973341;28;20506;-87
2022/08/25 07:55:54;;;;;;;9.63;4.70;;;23.60;99.90;;;;;;4956235;28;20051;-87
2022/08/25 07:58:20;;;;;;;10.88;4.60;;;23.70;99.90;;;;;;4956422;28;20060;-88
2022/08/25 08:00:51;;;;;;;10.18;4.65;;;23.70;99.90;;;;;;4974222;28;20039;-87
2022/08/25 08:03:23;;;;;;;11.27;4.85;;;24.00;99.90;;;;;;4956188;28;20506;-93
2022/08/25 08:06:17;;;;;;;10.55;4.88;;;24.00;99.90;;;;;;4957204;28;20043;-95
2022/08/25 08:08:47;;;;;;;9.90;4.60;;;24.00;99.90;;;;;;4977303;23;20057;-93
2022/08/25 08:11:43;;;;;;;9.98;4.60;;;24.30;99.90;;;;;;4942758;28;20046;-92
2022/08/25 08:14:10;;;;;;;10.63;4.80;;;24.50;99.90;;;;;;4999174;23;20033;-93
2022/08/25 08:17:50;;;;;;;12.85;4.63;;;25.00;99.90;;;;;;4974583;28;20054;-89
2022/08/25 08:20:16;;;;;;;12.95;4.63;;;24.80;99.90;;;;;;4992468;28;20050;-90
2022/08/25 08:22:51;;;;;;;10.75;4.63;;;24.80;99.90;;;;;;4993712;28;20046;-89
2022/08/25 08:25:17;;;;;;;11.48;4.57;;;24.90;99.90;;;;;;4983131;28;20060;-90
2022/08/25 08:27:44;;;;;;;9.82;4.90;;;25.10;99.90;;;;;;4990217;28;20042;-90
2022/08/25 08:30:20;;;;;;;13.88;4.72;;;25.10;99.90;;;;;;4994494;28;20121;-91
2022/08/25 08:32:55;;;;;;;11.00;4.22;;;25.20;99.90;;;;;;4976314;28;20598;-91
2022/08/25 08:35:27;;;;;;;9.75;4.65;;;25.10;99.90;;;;;;4975813;28;20529;-90
2022/08/25 08:37:56;;;;;;;12.02;4.93;;;25.40;99.90;;;;;;4975158;28;20069;-90
2022/08/25 08:44:17;;;;;;;11.32;4.72;;;25.60;99.90;;;;;;4992982;28;20076;-92
2022/08/25 08:53:53;;;;;;;9.98;4.93;;;25.90;99.90;;;;;;4961775;23;20307;-93
2022/08/25 08:56:40;;;;;;;9.27;4.40;;;26.00;99.90;;;;;;4953213;29;20443;-91
2022/08/25 09:03:43;;;;;;;9.98;4.40;;;26.30;99.90;;;;;;4943950;29;20046;-93
2022/08/25 09:06:41;;;;;;;10.73;4.00;;;26.50;99.90;;;;;;4921604;29;20896;-94
2022/08/25 09:09:42;;;;;;;10.80;4.30;;;26.70;99.90;;;;;;4921881;29;20048;-92
2022/08/25 09:12:30;;;;;;;10.00;4.13;;;26.80;99.90;;;;;;4869698;29;20057;-94
2022/08/25 09:31:44;;;;;;;9.38;3.80;;;27.40;99.90;;;;;;5404023;23;20060;-91
2022/08/25 09:44:32;;;;;;;10.63;4.05;;;28.10;98.90;;;;;;4995293;28;20097;-85
2022/08/25 09:50:00;;;;;;;9.75;4.15;;;28.10;98.00;;;;;;4999743;23;20065;-87
2022/08/25 09:52:44;;;;;;;11.10;4.05;;;28.20;97.40;;;;;;4976814;28;20042;-87
2022/08/25 09:55:30;;;;;;;10.52;4.00;;;28.40;97.50;;;;;;4994751;28;20046;-88
2022/08/25 10:01:24;;;;;;;8.40;3.97;;;28.70;96.10;;;;;;5039852;23;20093;-88
2022/08/25 10:04:08;;;;;;;9.88;3.70;;;28.80;95.70;;;;;;5004982;28;20089;-89
2022/08/25 10:07:00;;;;;;;8.75;3.60;;;28.80;95.50;;;;;;4980892;28;20046;-89
2022/08/25 10:09:41;;;;;;;8.38;3.38;;;28.70;94.70;;;;;;4983116;28;20050;-91
2022/08/25 10:12:48;;;;;;;10.80;3.97;;;28.80;94.80;;;;;;4979512;28;20125;-87
2022/08/25 10:15:21;;;;;;;8.40;3.58;;;28.80;94.70;;;;;;4965801;28;20038;-86
2022/08/25 10:17:47;;;;;;;8.18;3.72;;;29.00;93.90;;;;;;4984997;28;20050;-85
2022/08/25 10:20:31;;;;;;;9.60;3.60;;;29.20;94.80;;;;;;4985532;28;20039;-85
2022/08/25 10:23:25;;;;;;;9.18;3.60;;;29.40;93.50;;;;;;4980243;23;20042;-90
2022/08/25 10:25:52;;;;;;;9.57;4.05;;;29.50;93.40;;;;;;4958709;28;20407;-95
2022/08/25 10:28:44;;;;;;;9.60;3.50;;;29.60;93.70;;;;;;4958451;28;20051;-93
2022/08/25 10:31:55;;;;;;;10.85;4.25;;;29.60;93.10;;;;;;4958099;28;20475;-92
2022/08/25 10:34:59;;;;;;;8.40;3.65;;;29.80;92.10;;;;;;4919013;29;20056;-93
2022/08/25 10:37:56;;;;;;;10.10;3.70;;;29.90;91.90;;;;;;4918577;29;20055;-91
2022/08/25 10:40:40;;;;;;;10.00;4.00;;;30.10;92.80;;;;;;4966932;28;20055;-93
2022/08/25 10:43:34;;;;;;;8.13;3.60;;;30.20;92.80;;;;;;4976394;28;20051;-91
2022/08/25 10:46:37;;;;;;;10.40;3.90;;;30.30;92.50;;;;;;4939297;28;20054;-90
2022/08/25 10:49:18;;;;;;;10.02;3.90;;;30.40;92.30;;;;;;4979136;28;20589;-92
2022/08/25 10:52:38;;;;;;;8.65;3.47;;;30.60;91.90;;;;;;4959818;28;20086;-92
2022/08/25 10:55:16;;;;;;;9.75;3.80;;;30.70;91.30;;;;;;4921763;29;20055;-94
2022/08/25 10:57:51;;;;;;;8.02;3.88;;;30.80;90.90;;;;;;4921824;29;20055;-95
2022/08/25 11:00:31;;;;;;;8.73;3.80;;;31.00;91.50;;;;;;4935912;29;20244;-93
2022/08/25 11:07:26;;;;;;;11.07;4.10;;;31.20;91.00;;;;;;4878566;29;20057;-94
2022/08/25 11:10:10;;;;;;;11.32;4.10;;;31.10;91.10;;;;;;4863950;29;20482;-91
2022/08/25 11:12:48;;;;;;;8.68;3.80;;;31.20;91.20;;;;;;4863709;29;20510;-94
2022/08/25 11:15:20;;;;;;;10.32;3.83;;;31.40;91.00;;;;;;4862229;29;20045;-90
2022/08/25 11:18:02;;;;;;;10.38;4.20;;;31.60;90.60;;;;;;4952919;28;20070;-91
2022/08/25 11:21:10;;;;;;;8.88;3.55;;;31.70;90.50;;;;;;4957038;28;20498;-90
2022/08/25 11:27:27;;;;;;;13.93;3.70;;;31.70;90.30;;;;;;4972450;28;20234;-91
2022/08/25 11:30:16;;;;;;;10.57;4.35;;;31.80;90.50;;;;;;4974234;28;20059;-91
2022/08/25 11:32:59;;;;;;;8.65;3.60;;;32.00;90.10;;;;;;4942226;29;20146;-90
2022/08/25 11:36:08;;;;;;;11.52;3.60;;;31.90;88.50;;;;;;4936652;29;20126;-89
2022/08/25 11:39:06;;;;;;;10.43;3.50;;;31.90;86.10;;;;;;4937774;29;20050;-91
2022/08/25 11:42:19;;;;;;;9.32;3.20;;;32.00;85.60;;;;;;4936867;29;20043;-89
2022/08/25 11:45:06;;;;;;;7.82;3.22;;;32.10;83.20;;;;;;4957247;29;20047;-89
2022/08/25 11:51:26;;;;;;;9.98;3.42;;;32.30;83.10;;;;;;4948636;23;20061;-90
2022/08/25 11:57:01;;;;;;;8.80;3.03;;;32.50;82.70;;;;;;4989774;23;20057;-90
2022/08/25 12:00:09;;;;;;;7.70;3.00;;;32.50;83.40;;;;;;4973150;28;20055;-90
2022/08/25 12:02:49;;;;;;;9.13;3.20;;;32.60;81.60;;;;;;4973575;28;20054;-91
2022/08/25 12:05:41;;;;;;;9.15;3.28;;;32.70;81.00;;;;;;4970130;28;20148;-89
2022/08/25 12:09:11;;;;;;;8.60;3.17;;;32.60;78.50;;;;;;4974177;28;20051;-91
2022/08/25 12:11:37;;;;;;;13.45;3.50;;;32.50;79.50;;;;;;4957154;28;20133;-92
2022/08/25 12:14:21;;;;;;;8.32;3.00;;;32.70;80.60;;;;;;4957420;28;20085;-92
2022/08/25 12:16:55;;;;;;;8.82;3.25;;;32.90;79.20;;;;;;4989874;23;20082;-92
2022/08/25 12:19:36;;;;;;;7.72;3.00;;;33.00;78.80;;;;;;4959564;28;20054;-92
2022/08/25 12:22:08;;;;;;;8.27;3.20;;;32.80;78.10;;;;;;4975312;28;20376;-90
2022/08/25 12:24:57;;;;;;;9.43;3.47;;;33.00;78.20;;;;;;4976730;28;20185;-91
2022/08/25 12:27:45;;;;;;;9.65;3.30;;;32.90;77.80;;;;;;4960465;28;20431;-91
2022/08/25 12:30:14;;;;;;;8.75;3.42;;;32.90;76.30;;;;;;4960876;28;20046;-88
2022/08/25 12:33:05;;;;;;;8.88;3.42;;;33.00;78.40;;;;;;4979081;28;20050;-92
2022/08/25 12:35:48;;;;;;;9.15;3.42;;;33.20;78.70;;;;;;4942824;28;20067;-90
2022/08/25 12:38:27;;;;;;;9.15;3.47;;;33.40;77.80;;;;;;4941607;28;20538;-90
2022/08/25 12:41:09;;;;;;;9.27;3.90;;;33.40;78.60;;;;;;4961562;28;20043;-90
2022/08/25 12:43:41;;;;;;;8.30;3.67;;;33.30;77.80;;;;;;4961671;28;20387;-89
2022/08/25 12:46:21;;;;;;;8.48;3.92;;;33.40;78.80;;;;;;4981632;28;20050;-91
2022/08/25 12:49:03;;;;;;;9.00;3.90;;;33.40;78.90;;;;;;4964884;28;20047;-86
2022/08/25 12:51:34;;;;;;;8.68;3.75;;;33.40;78.20;;;;;;4986207;28;20505;-89
2022/08/25 12:54:14;;;;;;;9.75;4.00;;;33.40;77.60;;;;;;4965441;28;20113;-87
2022/08/25 12:56:48;;;;;;;8.75;3.80;;;33.50;77.90;;;;;;4964895;28;20129;-88
2022/08/25 12:59:31;;;;;;;7.28;3.63;;;33.50;77.60;;;;;;4966973;28;20509;-88
2022/08/25 13:02:38;;;;;;;8.32;3.63;;;33.60;77.40;;;;;;4964286;28;20074;-88
2022/08/25 13:05:29;;;;;;;9.57;4.20;;;33.90;78.00;;;;;;4983398;28;20051;-88
2022/08/25 13:08:16;;;;;;;9.70;4.32;;;33.90;78.40;;;;;;4984781;28;20090;-88
2022/08/25 13:10:51;;;;;;;9.10;3.65;;;34.10;77.80;;;;;;4981461;28;20121;-86
2022/08/25 13:13:38;;;;;;;8.25;3.80;;;34.10;77.40;;;;;;4960202;28;20109;-85
2022/08/25 13:16:17;;;;;;;9.13;4.03;;;33.80;76.30;;;;;;4980667;28;20133;-85
2022/08/25 13:18:46;;;;;;;9.05;4.63;;;33.80;77.10;;;;;;4996869;28;20050;-85
2022/08/25 13:21:32;;;;;;;10.98;4.13;;;34.00;77.20;;;;;;4996039;28;20061;-85
2022/08/25 13:24:02;;;;;;;10.82;4.28;;;34.00;77.10;;;;;;4997620;28;20050;-85
2022/08/25 13:26:31;;;;;;;8.50;3.72;;;34.00;77.10;;;;;;4985292;28;20053;-85
2022/08/25 13:29:00;;;;;;;9.45;3.85;;;34.20;76.60;;;;;;4996451;28;20042;-84
2022/08/25 13:31:28;;;;;;;8.57;3.80;;;34.20;76.50;;;;;;4967597;28;20158;-85
2022/08/25 13:33:54;;;;;;;8.93;4.40;;;34.30;76.70;;;;;;4976875;28;20061;-85
2022/08/25 13:39:32;;;;;;;8.90;3.60;;;34.00;77.00;;;;;;4959732;28;20047;-85
2022/08/25 13:41:59;;;;;;;7.90;3.80;;;34.10;76.60;;;;;;4956306;28;20414;-84
2022/08/25 13:44:31;;;;;;;8.43;3.83;;;34.30;77.30;;;;;;4976397;28;20499;-85
2022/08/25 13:47:30;;;;;;;10.02;4.00;;;34.40;76.30;;;;;;4959208;28;20402;-85
2022/08/25 13:50:25;;;;;;;8.63;4.10;;;34.40;76.20;;;;;;4976785;28;20070;-88
2022/08/25 13:53:00;;;;;;;11.13;4.28;;;34.70;76.50;;;;;;4975430;28;20047;-85
2022/08/25 13:55:44;;;;;;;12.23;4.43;;;34.90;76.00;;;;;;4979115;28;20502;-82
2022/08/25 13:58:20;;;;;;;8.57;3.90;;;34.50;75.70;;;;;;4960595;28;20038;-83
2022/08/25 14:01:14;;;;;;;11.82;4.80;;;34.50;75.90;;;;;;4994490;28;20038;-83
2022/08/25 14:03:43;;;;;;;8.55;4.05;;;34.40;76.10;;;;;;4977104;28;20054;-82
2022/08/25 14:06:15;;;;;;;9.13;4.22;;;34.40;76.10;;;;;;4983745;28;20035;-83
2022/08/25 14:08:42;;;;;;;9.13;4.30;;;34.40;75.90;;;;;;4960122;28;20043;-83
2022/08/25 14:11:31;;;;;;;10.77;4.13;;;34.30;75.20;;;;;;4957429;28;20057;-83
2022/08/25 14:14:11;;;;;;;11.07;3.65;;;34.20;74.60;;;;;;4978335;28;20125;-83
2022/08/25 14:16:46;;;;;;;8.52;3.63;;;34.40;75.80;;;;;;4965770;28;20194;-84
2022/08/25 14:19:15;;;;;;;9.60;4.07;;;34.50;75.60;;;;;;4958237;28;20402;-83
2022/08/25 14:21:41;;;;;;;8.65;3.50;;;34.70;75.40;;;;;;4977645;23;20511;-83
2022/08/25 14:24:07;;;;;;;8.15;3.20;;;34.70;74.60;;;;;;4957014;28;20065;-83
2022/08/25 14:26:32;;;;;;;9.15;3.45;;;34.60;73.10;;;;;;4957309;28;20077;-83
2022/08/25 14:28:58;;;;;;;8.73;3.50;;;34.40;72.40;;;;;;4975498;28;20043;-83
2022/08/25 14:31:38;;;;;;;9.55;3.20;;;34.40;72.70;;;;;;4974299;28;20452;-84
2022/08/25 14:34:26;;;;;;;7.65;3.28;;;34.30;72.30;;;;;;4974966;28;20053;-82
2022/08/25 14:36:51;;;;;;;7.78;3.13;;;34.50;71.80;;;;;;4974677;28;20051;-81
2022/08/25 14:39:17;;;;;;;7.95;3.22;;;34.40;71.00;;;;;;4959137;28;20038;-83
2022/08/25 14:41:45;;;;;;;7.70;3.38;;;34.20;71.20;;;;;;4962783;28;20055;-81
2022/08/25 14:44:12;;;;;;;10.48;3.50;;;34.20;71.50;;;;;;4957379;28;20078;-85
2022/08/25 14:46:55;;;;;;;8.55;3.40;;;34.40;71.50;;;;;;4961801;28;20043;-88
2022/08/25 14:49:33;;;;;;;8.50;3.50;;;34.30;70.90;;;;;;4958099;28;20050;-85
2022/08/25 14:52:29;;;;;;;9.10;3.45;;;34.20;70.90;;;;;;4975734;28;20073;-86
2022/08/25 14:54:57;;;;;;;9.27;3.70;;;34.30;70.80;;;;;;4966390;28;20067;-89
2022/08/25 14:57:23;;;;;;;9.63;3.72;;;34.10;70.90;;;;;;4977423;28;20052;-88
2022/08/25 14:59:48;;;;;;;8.02;3.50;;;34.10;71.40;;;;;;4976777;28;20475;-88
2022/08/25 15:02:19;;;;;;;10.25;3.33;;;34.10;70.80;;;;;;4976705;28;20058;-88
2022/08/25 15:04:57;;;;;;;7.20;3.10;;;34.30;70.70;;;;;;4976649;28;20053;-88
2022/08/25 15:10:09;;;;;;;8.38;3.30;;;34.40;70.10;;;;;;5003223;28;20058;-85
2022/08/25 15:12:34;;;;;;;8.55;3.35;;;34.30;69.80;;;;;;4977569;28;20042;-85
2022/08/25 15:15:00;;;;;;;9.07;3.33;;;34.30;69.40;;;;;;4977195;28;20379;-86